Time;durP1;ratioP1;P1;durP2;ratioP2;P2;SDS_P1;SDS_P2;PMS_P1;PMS_P2;Temp;Humidity;BMP_temperature;BMP_pressure;BME280_temperature;BME280_humidity;BME280_pressure;Samples;Min_cycle;Max_cycle;Signal;HPM_P1;HPM_P2
2023/04/01 00:01:14;;;;;;;8.80;5.50;;;;;;;8.16;79.53;96155.89;109632;1289;22209;-86
2023/04/01 00:03:43;;;;;;;8.40;5.90;;;;;;;8.11;79.68;96157.55;109611;1289;22149;-86
2023/04/01 00:06:14;;;;;;;7.30;5.50;;;;;;;8.12;79.86;96153.55;109580;1289;22138;-85
2023/04/01 00:08:44;;;;;;;8.30;6.40;;;;;;;8.13;80.19;96152.19;109631;1289;22371;-86
2023/04/01 00:11:12;;;;;;;7.30;5.80;;;;;;;8.09;79.69;96147.59;109682;1289;22215;-86
2023/04/01 00:13:41;;;;;;;9.00;6.40;;;;;;;8.05;80.13;96142.23;109676;1289;22590;-86
2023/04/01 00:16:10;;;;;;;10.30;6.30;;;;;;;8.00;80.28;96139.96;109513;1280;22918;-86
2023/04/01 00:18:50;;;;;;;8.60;6.40;;;;;;;7.98;80.45;96134.98;109447;1289;212069;-87
2023/04/01 00:21:20;;;;;;;8.60;6.40;;;;;;;7.96;80.05;96126.69;109651;1289;22365;-87
2023/04/01 00:23:50;;;;;;;9.20;6.80;;;;;;;7.91;80.19;96130.04;109627;1289;22975;-88
2023/04/01 00:26:20;;;;;;;9.40;6.40;;;;;;;7.87;80.18;96130.03;109474;1289;22229;-84
2023/04/01 00:28:49;;;;;;;8.50;6.30;;;;;;;7.85;80.88;96126.66;109610;1289;22242;-85
2023/04/01 00:31:17;;;;;;;9.30;6.80;;;;;;;7.81;80.52;96129.17;109617;1283;22857;-84
2023/04/01 00:33:45;;;;;;;7.90;6.10;;;;;;;7.79;80.22;96126.35;109653;1289;22176;-85
2023/04/01 00:36:16;;;;;;;10.00;7.10;;;;;;;7.79;80.31;96127.70;109625;1278;23095;-85
2023/04/01 00:38:45;;;;;;;10.10;8.00;;;;;;;7.78;80.41;96130.36;109639;1289;22963;-85
2023/04/01 00:41:15;;;;;;;10.00;6.60;;;;;;;7.75;80.57;96137.31;109597;1284;22284;-85
2023/04/01 00:43:46;;;;;;;9.90;7.10;;;;;;;7.72;80.42;96140.11;109615;1289;22264;-85
2023/04/01 00:46:14;;;;;;;8.40;6.00;;;;;;;7.74;80.96;96139.88;109591;1289;22223;-84
2023/04/01 00:48:50;;;;;;;11.50;7.20;;;;;;;7.75;81.02;96131.64;109628;1289;22185;-84
2023/04/01 00:51:29;;;;;;;11.00;7.20;;;;;;;7.77;80.79;96129.17;109633;1289;22218;-84
2023/04/01 00:54:01;;;;;;;11.00;7.90;;;;;;;7.77;80.78;96132.16;109579;1289;22221;-84
2023/04/01 00:56:36;;;;;;;10.50;7.20;;;;;;;7.75;80.60;96130.95;109607;1289;22981;-84
2023/04/01 00:59:08;;;;;;;10.70;6.70;;;;;;;7.72;80.52;96135.21;109617;1289;22234;-84
2023/04/01 01:01:37;;;;;;;9.10;7.50;;;;;;;7.72;81.10;96137.10;109578;1289;22317;-85
2023/04/01 01:04:05;;;;;;;9.90;6.60;;;;;;;7.71;81.19;96133.80;109615;1289;22237;-84
2023/04/01 01:06:55;;;;;;;10.70;7.50;;;;;;;7.69;80.88;96139.06;109616;1289;22214;-84
2023/04/01 01:09:49;;;;;;;13.40;8.40;;;;;;;7.68;81.22;96140.88;109629;1289;22281;-84
2023/04/01 01:12:29;;;;;;;12.20;9.00;;;;;;;7.65;81.24;96141.20;109388;1289;22919;-84
2023/04/01 01:15:19;;;;;;;10.00;7.70;;;;;;;7.64;81.21;96140.80;109621;1289;22311;-84
2023/04/01 01:18:20;;;;;;;10.60;7.60;;;;;;;7.69;81.12;96140.36;109619;1289;22396;-83
2023/04/01 01:21:06;;;;;;;12.40;7.10;;;;;;;7.73;81.37;96140.98;109597;1289;22136;-84
2023/04/01 01:23:57;;;;;;;13.80;7.90;;;;;;;7.73;81.80;96144.77;109627;1289;22229;-84
2023/04/01 01:27:01;;;;;;;10.30;7.20;;;;;;;7.72;81.51;96140.19;109590;1289;22861;-84
2023/04/01 01:29:55;;;;;;;8.60;6.30;;;;;;;7.72;81.71;96144.54;109618;1289;22252;-83
2023/04/01 01:32:38;;;;;;;8.70;6.50;;;;;;;7.72;81.80;96139.26;109538;1289;22179;-83
2023/04/01 01:35:18;;;;;;;8.70;6.30;;;;;;;7.77;81.87;96143.65;109657;1289;22221;-84
2023/04/01 01:37:52;;;;;;;9.50;6.70;;;;;;;7.78;81.86;96144.93;109646;1289;22304;-84
2023/04/01 01:40:21;;;;;;;8.20;6.00;;;;;;;7.80;81.73;96147.30;109430;1286;22148;-84
2023/04/01 01:42:53;;;;;;;9.70;6.20;;;;;;;7.80;81.76;96139.48;109621;1289;22309;-84
2023/04/01 01:45:23;;;;;;;8.00;6.10;;;;;;;7.78;81.99;96135.28;109475;1289;22147;-83
2023/04/01 01:47:53;;;;;;;7.90;6.00;;;;;;;7.78;81.78;96134.12;109447;1289;22191;-83
2023/04/01 01:50:23;;;;;;;10.00;5.30;;;;;;;7.83;82.91;96129.27;109627;1289;22897;-83
2023/04/01 01:53:01;;;;;;;8.80;6.40;;;;;;;7.82;82.57;96129.98;109581;1289;22911;-83
2023/04/01 01:55:33;;;;;;;8.60;6.60;;;;;;;7.81;82.64;96133.94;109591;1289;22281;-83
2023/04/01 01:58:27;;;;;;;7.80;5.90;;;;;;;7.77;82.72;96130.42;109623;1289;22960;-82
2023/04/01 02:01:00;;;;;;;9.80;6.70;;;;;;;7.74;82.58;96133.59;109615;1289;23483;-83
2023/04/01 02:03:34;;;;;;;8.90;6.10;;;;;;;7.74;82.96;96130.00;109638;1289;23098;-83
2023/04/01 02:06:06;;;;;;;6.80;5.50;;;;;;;7.76;82.74;96129.52;109636;1289;22307;-83
2023/04/01 02:08:44;;;;;;;8.20;5.60;;;;;;;7.77;82.82;96130.80;109586;1289;22240;-83
2023/04/01 02:11:19;;;;;;;8.40;6.90;;;;;;;7.77;82.67;96134.63;109615;1289;22229;-83
2023/04/01 02:14:17;;;;;;;9.10;7.40;;;;;;;7.74;82.68;96135.14;109464;1289;22215;-83
2023/04/01 02:17:02;;;;;;;9.00;6.40;;;;;;;7.73;82.55;96139.38;109540;1289;22239;-83
2023/04/01 02:19:36;;;;;;;8.30;6.10;;;;;;;7.77;82.38;96141.81;109635;1289;21999;-83
2023/04/01 02:22:11;;;;;;;7.70;6.80;;;;;;;7.80;83.64;96140.79;109632;1289;22187;-83
2023/04/01 02:24:41;;;;;;;9.70;6.60;;;;;;;7.79;83.37;96141.74;109581;1289;22619;-84
2023/04/01 02:27:10;;;;;;;7.70;6.20;;;;;;;7.77;83.63;96147.42;109473;1289;22906;-84
2023/04/01 02:29:39;;;;;;;8.70;6.10;;;;;;;7.75;83.44;96152.39;109636;1289;23065;-84
2023/04/01 02:32:09;;;;;;;8.90;6.30;;;;;;;7.74;83.71;96152.97;109600;1289;22862;-83
2023/04/01 02:34:37;;;;;;;8.10;6.00;;;;;;;7.73;84.26;96153.34;109608;1289;22180;-83
2023/04/01 02:37:06;;;;;;;9.30;6.40;;;;;;;7.74;84.32;96156.90;109631;1289;22196;-83
2023/04/01 02:39:34;;;;;;;7.90;5.80;;;;;;;7.75;84.28;96157.30;109646;1289;22269;-82
2023/04/01 02:42:03;;;;;;;9.00;6.90;;;;;;;7.71;84.37;96161.95;109583;1289;22204;-83
2023/04/01 02:44:32;;;;;;;7.90;6.30;;;;;;;7.68;84.50;96165.31;109623;1289;23483;-82
2023/04/01 02:47:00;;;;;;;8.40;6.20;;;;;;;7.70;84.35;96165.09;109627;1289;22202;-82
2023/04/01 02:49:28;;;;;;;9.70;6.50;;;;;;;7.73;84.67;96169.44;109605;1289;22326;-82
2023/04/01 02:51:56;;;;;;;12.20;8.10;;;;;;;7.74;84.58;96167.69;109644;1289;22276;-83
2023/04/01 02:54:24;;;;;;;11.50;6.90;;;;;;;7.75;84.52;96168.79;109594;1289;22957;-82
2023/04/01 02:56:52;;;;;;;8.40;7.30;;;;;;;7.70;84.72;96168.05;109676;1289;22392;-83
2023/04/01 02:59:20;;;;;;;11.90;6.60;;;;;;;7.70;84.68;96170.14;109689;1289;22286;-84
2023/04/01 03:01:48;;;;;;;8.00;6.40;;;;;;;7.71;84.61;96173.69;109660;1289;22256;-83
2023/04/01 03:04:16;;;;;;;8.50;7.00;;;;;;;7.73;85.33;96175.83;109637;1289;22205;-83
2023/04/01 03:06:44;;;;;;;9.20;7.70;;;;;;;7.71;84.79;96179.54;109631;1289;22239;-84
2023/04/01 03:09:12;;;;;;;13.40;6.90;;;;;;;7.68;84.86;96179.17;109612;1289;22981;-83
2023/04/01 03:11:40;;;;;;;9.60;6.50;;;;;;;7.67;85.12;96181.96;109571;1289;22276;-83
2023/04/01 03:14:08;;;;;;;8.00;6.20;;;;;;;7.70;85.05;96178.69;109627;1289;22316;-83
2023/04/01 03:16:36;;;;;;;8.20;6.40;;;;;;;7.68;85.30;96174.58;109588;1289;22268;-83
2023/04/01 03:19:04;;;;;;;13.50;9.70;;;;;;;7.69;85.13;96178.59;109587;1289;22244;-83
2023/04/01 03:21:32;;;;;;;22.80;18.30;;;;;;;7.69;85.29;96174.37;109618;1289;22217;-83
2023/04/01 03:24:01;;;;;;;22.90;20.40;;;;;;;7.69;85.44;96169.57;109609;1289;23430;-84
2023/04/01 03:26:29;;;;;;;17.90;15.40;;;;;;;7.69;85.33;96166.95;109635;1289;22254;-84
2023/04/01 03:29:00;;;;;;;19.40;17.30;;;;;;;7.70;85.46;96169.91;109627;1289;22878;-83
2023/04/01 03:31:28;;;;;;;11.00;9.00;;;;;;;7.70;85.13;96167.36;109625;1289;22213;-84
2023/04/01 03:33:56;;;;;;;11.00;8.60;;;;;;;7.69;85.25;96165.11;109644;1289;22292;-84
2023/04/01 03:36:24;;;;;;;9.70;7.50;;;;;;;7.69;85.28;96168.69;109642;1289;23060;-84
2023/04/01 03:38:52;;;;;;;8.20;6.30;;;;;;;7.71;85.10;96168.81;109619;1289;22306;-84
2023/04/01 03:41:23;;;;;;;8.80;6.60;;;;;;;7.74;85.50;96166.54;109566;1277;22186;-84
2023/04/01 03:43:53;;;;;;;9.20;7.00;;;;;;;7.73;85.35;96161.84;109598;1289;23525;-84
2023/04/01 03:46:21;;;;;;;8.30;6.70;;;;;;;7.72;85.29;96162.94;109602;1289;22201;-84
2023/04/01 03:48:49;;;;;;;10.30;6.10;;;;;;;7.70;85.48;96168.30;109590;1289;22308;-84
2023/04/01 03:51:17;;;;;;;9.10;6.20;;;;;;;7.69;85.38;96165.89;109645;1289;22951;-83
2023/04/01 03:53:45;;;;;;;8.90;6.60;;;;;;;7.71;85.47;96165.34;109595;1282;22215;-83
2023/04/01 03:56:13;;;;;;;8.60;6.70;;;;;;;7.74;85.76;96159.80;109628;1289;22265;-85
2023/04/01 03:58:41;;;;;;;8.50;6.40;;;;;;;7.74;85.69;96162.87;109656;1289;22218;-85
2023/04/01 04:01:14;;;;;;;9.20;6.40;;;;;;;7.74;85.46;96168.08;109590;1289;23044;-85
2023/04/01 04:03:43;;;;;;;8.00;5.50;;;;;;;7.72;85.43;96170.44;109626;1289;22275;-85
2023/04/01 04:06:13;;;;;;;8.60;7.00;;;;;;;7.73;85.81;96171.55;109590;1289;22147;-86
2023/04/01 04:08:42;;;;;;;7.90;5.90;;;;;;;7.76;85.95;96173.04;109640;1289;22283;-84
2023/04/01 04:11:12;;;;;;;11.30;6.90;;;;;;;7.79;86.25;96174.89;109579;1289;22152;-85
2023/04/01 04:13:42;;;;;;;10.60;6.40;;;;;;;7.81;86.25;96176.42;109521;1289;22123;-85
2023/04/01 04:16:10;;;;;;;9.70;5.90;;;;;;;7.77;85.95;96179.13;109628;1289;22191;-83
2023/04/01 04:18:43;;;;;;;6.50;5.50;;;;;;;7.80;85.96;96181.23;109581;1289;22954;-83
2023/04/01 04:21:15;;;;;;;7.70;5.50;;;;;;;7.85;86.42;96180.67;109572;1289;22245;-82
2023/04/01 04:23:43;;;;;;;17.20;11.40;;;;;;;7.86;86.73;96177.57;109626;1289;22275;-85
2023/04/01 04:26:14;;;;;;;18.40;12.60;;;;;;;7.86;86.23;96179.24;109546;1289;22243;-85
2023/04/01 04:28:44;;;;;;;15.20;10.20;;;;;;;7.87;86.07;96180.28;109598;1287;22243;-85
2023/04/01 04:31:23;;;;;;;18.80;14.30;;;;;;;7.89;86.34;96181.60;109542;1279;22206;-83
2023/04/01 04:33:52;;;;;;;18.20;13.40;;;;;;;7.94;86.85;96180.27;109612;1289;22262;-84
2023/04/01 04:36:21;;;;;;;14.60;10.40;;;;;;;7.93;86.61;96178.64;109471;1289;22957;-85
2023/04/01 04:38:50;;;;;;;12.60;8.30;;;;;;;7.93;86.46;96176.23;109638;1289;23079;-83
2023/04/01 04:41:21;;;;;;;9.90;7.30;;;;;;;7.92;86.33;96175.67;109549;1289;22213;-83
2023/04/01 04:43:56;;;;;;;9.40;5.80;;;;;;;7.97;86.57;96175.46;109594;1289;22954;-83
2023/04/01 04:46:25;;;;;;;9.40;7.00;;;;;;;8.00;86.86;96175.52;109653;1289;22228;-84
2023/04/01 04:48:58;;;;;;;8.60;6.30;;;;;;;8.01;86.49;96177.18;109633;1289;22960;-83
2023/04/01 04:51:26;;;;;;;9.50;6.50;;;;;;;7.99;86.60;96180.77;109476;1289;22212;-84
2023/04/01 04:53:54;;;;;;;10.50;6.80;;;;;;;8.00;86.45;96179.66;109574;1289;22277;-85
2023/04/01 04:56:30;;;;;;;9.00;6.40;;;;;;;8.03;86.31;96183.61;109636;1289;22400;-87
2023/04/01 04:59:06;;;;;;;8.10;6.70;;;;;;;8.09;86.33;96181.77;109566;1289;22826;-85
2023/04/01 05:01:57;;;;;;;9.50;6.50;;;;;;;8.13;86.22;96182.02;109590;1289;22221;-84
2023/04/01 05:04:28;;;;;;;9.50;7.30;;;;;;;8.14;86.12;96181.50;109646;1289;22953;-82
2023/04/01 05:06:56;;;;;;;10.80;7.10;;;;;;;8.13;86.44;96185.66;109624;1289;22204;-83
2023/04/01 05:09:26;;;;;;;9.80;7.50;;;;;;;8.13;86.42;96186.52;109654;1289;22274;-87
2023/04/01 05:12:20;;;;;;;7.90;6.30;;;;;;;8.16;86.28;96188.40;109603;1289;22242;-85
2023/04/01 05:18:49;;;;;;;10.50;8.70;;;;;;;8.33;86.48;96181.83;109679;1289;22091;-88
2023/04/01 05:21:17;;;;;;;11.80;8.20;;;;;;;8.32;85.94;96185.84;109605;1289;23591;-86
2023/04/01 05:23:45;;;;;;;8.10;6.50;;;;;;;8.31;86.49;96184.39;109597;1289;22855;-88
2023/04/01 05:26:14;;;;;;;12.00;7.80;;;;;;;8.32;86.56;96184.39;109569;1289;22129;-90
2023/04/01 05:28:42;;;;;;;9.90;7.20;;;;;;;8.32;86.68;96186.69;109689;1289;22182;-91
2023/04/01 05:31:10;;;;;;;10.10;7.70;;;;;;;8.31;86.64;96190.10;109667;1289;22286;-85
2023/04/01 05:33:40;;;;;;;14.00;8.80;;;;;;;8.28;86.47;96190.47;109566;1289;22183;-83
2023/04/01 05:36:11;;;;;;;11.00;7.70;;;;;;;8.31;86.74;96190.20;109676;1289;22223;-82
2023/04/01 05:38:40;;;;;;;12.30;7.20;;;;;;;8.37;86.82;96192.77;109661;1289;22302;-83
2023/04/01 05:41:09;;;;;;;9.40;7.40;;;;;;;8.39;86.63;96190.06;109508;1289;22224;-83
2023/04/01 05:43:42;;;;;;;11.10;8.00;;;;;;;8.42;86.67;96189.72;109661;1289;22990;-84
2023/04/01 05:46:42;;;;;;;10.40;7.10;;;;;;;8.47;86.58;96188.52;109599;1289;22210;-83
2023/04/01 05:49:31;;;;;;;13.70;7.50;;;;;;;8.49;86.22;96187.84;109665;1289;22314;-83
2023/04/01 05:52:00;;;;;;;10.70;8.40;;;;;;;8.52;86.38;96186.34;109648;1289;22264;-85
2023/04/01 05:54:28;;;;;;;9.00;7.50;;;;;;;8.55;86.46;96188.30;109631;1289;22280;-83
2023/04/01 05:56:56;;;;;;;13.20;11.00;;;;;;;8.52;86.51;96188.27;109676;1289;23023;-84
2023/04/01 05:59:24;;;;;;;18.80;12.30;;;;;;;8.50;86.19;96191.50;109783;1289;22253;-92
2023/04/01 06:01:52;;;;;;;16.80;12.20;;;;;;;8.52;86.12;96189.77;109714;1289;22204;-92
2023/04/01 06:04:21;;;;;;;13.10;8.40;;;;;;;8.54;86.58;96192.33;109777;1289;22955;-88
2023/04/01 06:06:49;;;;;;;10.60;7.90;;;;;;;8.62;86.44;96192.45;109781;1289;22236;-87
2023/04/01 06:09:28;;;;;;;9.90;8.10;;;;;;;8.66;85.97;96198.27;109649;1289;22278;-86
2023/04/01 06:12:15;;;;;;;10.20;7.90;;;;;;;8.67;86.02;96200.00;109602;1289;22229;-86
2023/04/01 06:15:24;;;;;;;9.80;6.70;;;;;;;8.73;86.10;96205.83;109735;1289;22224;-87
2023/04/01 06:18:10;;;;;;;11.40;7.70;;;;;;;8.75;85.51;96201.67;109735;1289;22962;-90
2023/04/01 06:21:00;;;;;;;12.50;9.30;;;;;;;8.69;85.72;96203.14;109673;1289;22255;-90
2023/04/01 06:23:36;;;;;;;15.90;10.60;;;;;;;8.70;85.59;96202.19;109710;1289;22273;-93
2023/04/01 06:26:13;;;;;;;11.90;6.40;;;;;;;8.75;85.31;96205.66;109701;1289;22205;-92
2023/04/01 06:28:46;;;;;;;13.90;8.80;;;;;;;8.75;85.46;96206.20;109731;1289;22405;-88
2023/04/01 06:31:33;;;;;;;13.90;9.00;;;;;;;8.80;84.84;96202.01;109774;1289;22193;-91
2023/04/01 06:34:16;;;;;;;14.10;7.70;;;;;;;8.80;84.76;96201.70;109735;1264;22400;31
2023/04/01 06:37:00;;;;;;;13.80;9.00;;;;;;;8.81;84.75;96204.88;109610;1290;22198;-87
2023/04/01 06:39:40;;;;;;;15.20;7.60;;;;;;;8.85;84.85;96206.75;109622;1284;22210;-87
2023/04/01 06:42:18;;;;;;;9.20;5.80;;;;;;;8.94;84.89;96208.73;109624;1289;22787;-90
2023/04/01 06:44:56;;;;;;;11.40;9.40;;;;;;;8.98;83.86;96208.35;109675;1290;22301;-85
2023/04/01 06:47:46;;;;;;;10.70;7.60;;;;;;;8.94;83.63;96214.00;109722;1290;22138;-91
2023/04/01 06:50:48;;;;;;;12.10;7.40;;;;;;;8.92;84.00;96209.19;109683;1290;22176;-88
2023/04/01 06:53:42;;;;;;;13.90;8.10;;;;;;;8.95;83.97;96207.92;109573;1289;22111;-87
2023/04/01 06:56:42;;;;;;;26.70;12.30;;;;;;;8.92;83.80;96207.13;109477;1289;22496;-87
2023/04/01 06:59:19;;;;;;;46.20;20.10;;;;;;;8.90;83.45;96212.96;109543;1289;22819;-87
2023/04/01 07:01:52;;;;;;;14.70;7.80;;;;;;;8.88;83.36;96211.14;109513;1289;22310;-87
2023/04/01 07:04:25;;;;;;;15.60;8.90;;;;;;;8.85;83.37;96214.05;109573;1289;22140;-88
2023/04/01 07:06:58;;;;;;;17.50;15.60;;;;;;;8.90;83.78;96213.72;109581;1289;22157;-88
2023/04/01 07:09:40;;;;;;;13.70;12.40;;;;;;;8.92;83.60;96216.39;109649;1289;22287;-86
2023/04/01 07:12:33;;;;;;;8.30;6.90;;;;;;;8.94;83.25;96212.73;109712;1289;22872;-89
2023/04/01 07:15:30;;;;;;;7.90;6.00;;;;;;;9.00;83.03;96212.55;109642;1289;22207;-87
2023/04/01 07:18:16;;;;;;;12.70;7.70;;;;;;;9.08;83.43;96207.40;109568;1289;22181;-85
2023/04/01 07:20:45;;;;;;;11.90;7.20;;;;;;;9.24;83.61;96207.73;109659;1289;22272;-87
2023/04/01 07:23:25;;;;;;;10.40;6.00;;;;;;;9.36;82.73;96212.42;109683;1289;22314;-88
2023/04/01 07:26:35;;;;;;;8.80;6.00;;;;;;;9.46;81.67;96216.70;109624;1289;22312;-87
2023/04/01 07:29:14;;;;;;;8.80;6.20;;;;;;;9.49;81.41;96211.48;109287;1293;22276;-88
2023/04/01 07:32:12;;;;;;;8.90;5.40;;;;;;;9.59;81.60;96216.35;109161;1290;22310;-87
2023/04/01 07:34:55;;;;;;;7.90;5.20;;;;;;;9.64;80.76;96216.60;109150;1270;22373;-88
2023/04/01 07:37:31;;;;;;;9.50;6.30;;;;;;;9.63;80.19;96215.95;109144;1293;22266;-88
2023/04/01 07:40:26;;;;;;;11.30;6.00;;;;;;;9.61;80.29;96225.63;109268;1293;23099;-87
2023/04/01 07:43:13;;;;;;;10.00;6.60;;;;;;;9.64;80.39;96215.54;109133;1293;22250;-88
2023/04/01 07:45:54;;;;;;;9.50;5.90;;;;;;;9.66;80.16;96220.58;109122;1294;22868;-87
2023/04/01 07:48:39;;;;;;;8.90;5.50;;;;;;;9.68;80.22;96221.13;109125;1290;23057;-86
2023/04/01 07:51:17;;;;;;;8.60;5.50;;;;;;;9.72;79.71;96234.39;109105;1293;22149;-87
2023/04/01 07:54:03;;;;;;;8.30;4.80;;;;;;;9.77;79.65;96231.47;109097;1293;22213;-87
2023/04/01 07:56:51;;;;;;;9.40;6.10;;;;;;;9.82;79.60;96229.71;109126;1294;22899;-87
2023/04/01 07:59:56;;;;;;;7.80;5.20;;;;;;;9.88;79.28;96231.38;109167;1294;22200;-88
2023/04/01 08:02:41;;;;;;;8.40;5.60;;;;;;;9.90;79.08;96233.60;109109;1293;22944;-88
2023/04/01 08:05:22;;;;;;;8.40;5.80;;;;;;;9.88;79.36;96232.16;109318;1289;22112;-87
2023/04/01 08:08:13;;;;;;;10.50;5.90;;;;;;;9.93;79.61;96231.55;109474;1289;22952;-87
2023/04/01 08:11:32;;;;;;;13.80;10.20;;;;;;;9.95;79.36;96236.36;109666;1289;22229;-86
2023/04/01 08:14:30;;;;;;;7.80;5.60;;;;;;;9.92;79.29;96246.20;109677;1289;22255;-87
2023/04/01 08:17:28;;;;;;;7.30;5.50;;;;;;;9.72;80.53;96247.38;109792;1289;22939;-87
2023/04/01 08:20:27;;;;;;;6.40;4.80;;;;;;;9.54;82.35;96246.14;109665;1289;22386;-87
2023/04/01 08:23:03;;;;;;;9.50;5.90;;;;;;;9.39;83.26;96245.33;109533;1289;22256;-86
2023/04/01 08:25:39;;;;;;;10.70;6.50;;;;;;;9.32;83.03;96244.45;109519;1289;22141;-85
2023/04/01 08:28:44;;;;;;;10.50;6.70;;;;;;;9.35;83.37;96246.20;109525;1279;22258;-88
2023/04/01 08:31:18;;;;;;;7.50;5.30;;;;;;;9.50;84.00;96241.94;109397;1289;22950;-87
2023/04/01 08:33:48;;;;;;;8.10;5.40;;;;;;;9.57;84.15;96245.17;109684;1289;22264;-86
2023/04/01 08:36:28;;;;;;;10.30;7.60;;;;;;;9.62;83.52;96243.71;109491;1290;22260;-87
2023/04/01 08:39:15;;;;;;;13.10;10.80;;;;;;;9.70;82.83;96243.61;109587;1290;22254;-87
2023/04/01 08:41:47;;;;;;;20.30;18.30;;;;;;;9.73;82.08;96243.50;109577;1290;22114;-87
2023/04/01 08:44:45;;;;;;;12.30;6.50;;;;;;;9.83;82.51;96243.27;109617;1290;22181;-87
2023/04/01 08:47:31;;;;;;;10.30;7.10;;;;;;;9.92;82.25;96241.67;109577;1290;22196;-87
2023/04/01 08:50:21;;;;;;;10.40;7.10;;;;;;;10.01;81.70;96243.58;109554;1290;23061;-87
2023/04/01 08:53:29;;;;;;;11.80;9.00;;;;;;;10.04;81.35;96242.02;109577;1290;22210;-87
2023/04/01 08:56:35;;;;;;;11.10;8.30;;;;;;;10.01;81.67;96246.04;109576;1290;22266;-88
2023/04/01 08:59:26;;;;;;;10.50;6.80;;;;;;;9.97;82.35;96255.52;109551;1284;22194;-87
2023/04/01 09:02:23;;;;;;;10.70;6.80;;;;;;;9.93;82.55;96258.69;109519;1290;22272;-86
2023/04/01 09:05:20;;;;;;;9.00;6.40;;;;;;;9.83;82.61;96258.27;109540;1287;22204;-85
2023/04/01 09:08:12;;;;;;;8.10;5.50;;;;;;;9.71;82.86;96260.64;109545;1290;22258;-84
2023/04/01 09:10:44;;;;;;;7.70;5.20;;;;;;;9.57;83.41;96265.23;109547;1290;22167;-84
2023/04/01 09:13:56;;;;;;;6.50;4.30;;;;;;;9.50;83.81;96262.77;109577;1290;22111;-86
2023/04/01 09:16:42;;;;;;;6.90;5.10;;;;;;;9.40;84.65;96267.64;109532;1290;23051;-87
2023/04/01 09:19:47;;;;;;;7.70;6.00;;;;;;;9.24;84.98;96268.78;109586;1290;22288;-86
2023/04/01 09:22:37;;;;;;;7.80;6.20;;;;;;;9.18;86.55;96267.77;109606;1290;22742;-86
2023/04/01 09:25:32;;;;;;;8.50;6.00;;;;;;;9.16;87.62;96256.02;109552;1290;22259;-85
2023/04/01 09:28:19;;;;;;;10.10;6.20;;;;;;;9.26;88.41;96253.23;109578;1290;22408;-87
2023/04/01 09:31:20;;;;;;;8.40;6.10;;;;;;;9.34;88.70;96253.67;109571;1290;22223;-85
2023/04/01 09:34:20;;;;;;;8.20;5.90;;;;;;;9.51;88.66;96250.45;109486;1289;22230;-86
2023/04/01 09:37:21;;;;;;;8.60;6.40;;;;;;;9.67;88.72;96252.27;109509;1289;22187;-87
2023/04/01 09:40:11;;;;;;;10.30;7.40;;;;;;;9.83;88.95;96253.56;109579;1289;22137;-91
2023/04/01 09:43:03;;;;;;;8.10;5.90;;;;;;;9.93;88.48;96256.98;109521;1289;22235;-87
2023/04/01 09:45:39;;;;;;;7.10;5.50;;;;;;;9.97;87.46;96254.13;109530;1289;22079;-88
2023/04/01 09:48:20;;;;;;;;;;;;;;;10.02;86.73;96253.59;109600;1289;23027;-83
2023/04/01 09:51:12;;;;;;;10.70;8.10;;;;;;;10.05;86.97;96252.39;109536;1289;22969;-82
2023/04/01 09:54:01;;;;;;;10.30;7.40;;;;;;;10.12;87.16;96253.36;109558;1289;22279;-82
2023/04/01 09:57:10;;;;;;;8.90;6.10;;;;;;;10.15;86.61;96253.56;109506;1289;22921;-84
2023/04/01 10:00:04;;;;;;;7.50;5.40;;;;;;;10.13;86.59;96253.27;109519;1289;22256;-85
2023/04/01 10:02:46;;;;;;;7.60;5.90;;;;;;;10.09;86.19;96261.48;109176;1289;22262;-85
2023/04/01 10:05:27;;;;;;;10.40;6.50;;;;;;;9.96;86.14;96257.77;109558;1289;22240;-86
2023/04/01 10:08:19;;;;;;;8.90;6.50;;;;;;;9.85;86.47;96260.08;109518;1289;22283;-86
2023/04/01 10:11:11;;;;;;;12.90;9.60;;;;;;;9.86;87.10;96262.52;109592;1289;22250;-85
2023/04/01 10:14:22;;;;;;;12.50;10.10;;;;;;;10.09;87.77;96261.73;109580;1289;22257;-85
2023/04/01 10:17:00;;;;;;;11.10;7.00;;;;;;;10.34;87.54;96261.77;109321;1289;22191;-84
2023/04/01 10:19:53;;;;;;;8.50;6.50;;;;;;;10.41;87.36;96256.54;109518;1289;22140;-84
2023/04/01 10:22:54;;;;;;;10.40;8.30;;;;;;;10.48;87.36;96252.52;109519;1289;21891;-87
2023/04/01 10:25:45;;;;;;;9.50;7.50;;;;;;;10.58;87.61;96253.44;109518;1289;22149;-85
2023/04/01 10:28:28;;;;;;;8.10;6.50;;;;;;;10.60;86.81;96252.20;109556;1289;22229;-86
2023/04/01 10:31:42;;;;;;;7.90;5.60;;;;;;;10.46;86.37;96256.93;109683;1289;22203;-83
2023/04/01 10:34:28;;;;;;;10.80;9.20;;;;;;;10.36;86.81;96260.70;109552;1289;22279;-84
2023/04/01 10:37:03;;;;;;;10.20;8.10;;;;;;;10.26;87.24;96261.06;109677;1289;22180;-83
2023/04/01 10:39:45;;;;;;;8.40;6.10;;;;;;;10.11;87.81;96269.64;109497;1289;22144;-85
2023/04/01 10:42:44;;;;;;;7.70;6.70;;;;;;;9.92;89.02;96271.34;109523;1289;22260;-84
2023/04/01 10:45:48;;;;;;;10.60;9.20;;;;;;;9.79;90.01;96267.66;109509;1289;22293;-85
2023/04/01 10:48:31;;;;;;;7.90;7.10;;;;;;;9.78;90.22;96268.17;109531;1289;22217;-85
2023/04/01 10:51:06;;;;;;;10.50;8.40;;;;;;;9.90;90.63;96261.04;109558;1289;23033;-85
2023/04/01 10:53:42;;;;;;;8.10;6.70;;;;;;;10.19;91.03;96265.20;109659;1289;22860;-85
2023/04/01 10:56:39;;;;;;;8.90;8.00;;;;;;;10.48;90.51;96262.52;109663;1289;22150;-85
2023/04/01 10:59:57;;;;;;;7.40;6.40;;;;;;;10.83;90.57;96253.66;109672;1278;22258;-85
2023/04/01 11:03:22;;;;;;;8.80;7.00;;;;;;;11.10;90.00;96257.50;109680;1289;22070;-83
2023/04/01 11:07:06;;;;;;;9.80;7.40;;;;;;;11.37;89.15;96256.95;108513;1294;23223;-86
2023/04/01 11:10:12;;;;;;;7.90;5.90;;;;;;;11.57;87.80;96256.34;109142;1293;23215;-86
2023/04/01 11:13:22;;;;;;;8.10;7.30;;;;;;;11.44;87.22;96253.96;109142;1294;22231;-86
2023/04/01 11:16:19;;;;;;;8.90;6.00;;;;;;;11.29;86.15;96258.11;109120;1293;22691;-86
2023/04/01 11:19:02;;;;;;;6.40;5.10;;;;;;;10.99;85.30;96262.12;109186;1290;22227;-86
2023/04/01 11:21:59;;;;;;;6.50;5.40;;;;;;;10.80;86.23;96263.96;109100;1293;22194;-86
2023/04/01 11:25:17;;;;;;;7.80;6.30;;;;;;;10.61;86.73;96263.91;109126;1293;22278;-86
2023/04/01 11:28:15;;;;;;;9.90;7.30;;;;;;;10.40;86.80;96263.44;109118;1293;22254;-85
2023/04/01 11:31:11;;;;;;;6.40;4.60;;;;;;;10.35;87.63;96267.43;109109;1293;22305;-83
2023/04/01 11:33:45;;;;;;;6.20;4.20;;;;;;;10.46;88.50;96264.00;109113;1293;22210;-84
2023/04/01 11:36:34;;;;;;;5.90;4.70;;;;;;;10.61;88.28;96260.02;109201;1293;23133;-85
2023/04/01 11:39:29;;;;;;;7.80;5.20;;;;;;;10.75;87.70;96266.66;109176;1290;22310;-85
2023/04/01 11:42:37;;;;;;;6.40;4.90;;;;;;;10.88;87.37;96264.59;109236;1289;22971;-85
2023/04/01 11:45:48;;;;;;;6.50;5.40;;;;;;;11.04;87.30;96255.58;109666;1289;22232;-85
2023/04/01 11:48:50;;;;;;;7.30;5.00;;;;;;;11.11;86.96;96253.70;109487;1289;22995;-86
2023/04/01 11:51:29;;;;;;;7.00;5.40;;;;;;;11.17;86.49;96262.64;109512;1289;22166;-85
2023/04/01 11:54:18;;;;;;;8.50;5.50;;;;;;;11.16;83.87;96261.08;109694;1289;22182;-85
2023/04/01 11:56:55;;;;;;;6.70;4.40;;;;;;;11.15;84.02;96251.78;109671;1283;22264;-85
2023/04/01 11:59:40;;;;;;;7.90;5.40;;;;;;;11.20;83.74;96258.78;109689;1289;22898;-85
2023/04/01 12:02:20;;;;;;;4.50;3.60;;;;;;;11.19;82.71;96263.47;109686;1289;22266;-84
2023/04/01 12:05:11;;;;;;;6.90;5.40;;;;;;;11.15;82.88;96264.12;109648;1289;22161;-85
2023/04/01 12:07:52;;;;;;;10.20;7.00;;;;;;;11.06;82.96;96271.72;109543;1289;22417;-86
2023/04/01 12:10:44;;;;;;;13.70;10.30;;;;;;;10.89;83.38;96275.23;109698;1289;22288;-85
2023/04/01 12:13:18;;;;;;;10.30;8.30;;;;;;;10.76;83.78;96274.38;109647;1289;22220;-86
2023/04/01 12:16:28;;;;;;;9.80;5.90;;;;;;;10.80;84.75;96269.18;109702;1289;22327;-86
2023/04/01 12:19:11;;;;;;;8.80;6.60;;;;;;;11.10;85.42;96268.38;109267;1289;153213;-85
2023/04/01 12:22:00;;;;;;;7.50;6.80;;;;;;;11.46;85.15;96268.04;109557;1289;22245;-85
2023/04/01 12:24:51;;;;;;;7.40;5.20;;;;;;;11.50;84.89;96268.95;109498;1289;22095;-86
2023/04/01 12:27:37;;;;;;;7.90;6.40;;;;;;;11.38;84.79;96267.16;109690;1289;22220;-85
2023/04/01 12:30:32;;;;;;;10.00;8.50;;;;;;;11.25;84.69;96265.01;109669;1289;22193;-84
2023/04/01 12:33:19;;;;;;;;;;;;;;;11.14;84.23;96272.79;109670;1289;22500;-84
2023/04/01 12:35:47;;;;;;;12.50;8.40;;;;;;;10.94;84.37;96278.76;109551;1289;22260;-85
2023/04/01 12:38:32;;;;;;;6.40;5.70;;;;;;;10.83;85.36;96276.30;109668;1289;23068;-85